createdAt,value
2018-12-10T00:00:30.534Z,5.60
2018-12-10T00:03:05.072Z,5.60
2018-12-10T00:05:33.664Z,5.60
2018-12-10T00:08:02.448Z,5.60
2018-12-10T00:10:31.634Z,5.60
2018-12-10T00:13:00.169Z,5.60
2018-12-10T00:15:29.324Z,5.60
2018-12-10T00:17:58.700Z,5.50
2018-12-10T00:20:28.268Z,5.50
2018-12-10T00:22:56.839Z,5.50
2018-12-10T00:25:25.952Z,5.50
2018-12-10T00:27:54.424Z,5.40
2018-12-10T00:30:22.902Z,5.50
2018-12-10T00:32:51.371Z,5.50
2018-12-10T00:35:20.272Z,5.40
2018-12-10T00:37:48.800Z,5.40
2018-12-10T00:40:17.346Z,5.40
2018-12-10T00:42:46.471Z,5.40
2018-12-10T00:45:14.970Z,5.40
2018-12-10T00:47:43.500Z,5.40
2018-12-10T00:50:12.036Z,5.30
2018-12-10T00:52:41.851Z,5.30
2018-12-10T00:55:10.374Z,5.30
2018-12-10T00:57:38.872Z,5.30
2018-12-10T01:00:07.631Z,5.30
2018-12-10T01:02:37.136Z,5.30
2018-12-10T01:05:07.377Z,5.30
2018-12-10T01:07:35.891Z,5.20
2018-12-10T01:10:05.107Z,5.20
2018-12-10T01:12:34.423Z,5.20
2018-12-10T01:15:03.586Z,5.20
2018-12-10T01:17:32.068Z,5.20
2018-12-10T01:20:01.140Z,5.20
2018-12-10T01:22:30.498Z,5.20
2018-12-10T01:24:58.994Z,5.20
2018-12-10T01:27:28.283Z,5.10
2018-12-10T01:29:56.755Z,5.20
2018-12-10T01:32:25.219Z,5.10
2018-12-10T01:34:53.724Z,5.10
2018-12-10T01:37:22.369Z,5.10
2018-12-10T01:39:52.017Z,5.10
2018-12-10T01:42:21.307Z,5.10
2018-12-10T01:44:49.822Z,5.10
2018-12-10T01:47:18.320Z,5.10
2018-12-10T01:49:46.849Z,5.00
2018-12-10T01:52:15.332Z,5.00
2018-12-10T01:54:43.901Z,5.00
2018-12-10T01:57:12.436Z,5.00
2018-12-10T01:59:40.954Z,5.00
2018-12-10T02:02:09.475Z,5.00
2018-12-10T02:04:38.995Z,4.90
2018-12-10T02:07:07.468Z,4.90
2018-12-10T02:09:35.960Z,4.90
2018-12-10T02:12:05.720Z,4.90
2018-12-10T02:14:34.190Z,4.90
2018-12-10T02:17:03.002Z,4.90
2018-12-10T02:19:31.523Z,4.90
2018-12-10T02:22:00.053Z,4.90
2018-12-10T02:24:28.585Z,4.80
2018-12-10T02:26:57.039Z,4.80
2018-12-10T02:29:25.540Z,4.80
2018-12-10T02:31:54.633Z,4.80
2018-12-10T02:34:23.146Z,4.80
2018-12-10T02:36:51.614Z,4.80
2018-12-10T02:39:20.133Z,4.80
2018-12-10T02:41:48.623Z,4.80
2018-12-10T02:44:17.101Z,4.80
2018-12-10T02:46:45.550Z,4.80
2018-12-10T02:49:14.021Z,4.80
2018-12-10T02:51:42.502Z,4.80
2018-12-10T02:54:11.915Z,4.80
2018-12-10T02:56:40.606Z,4.80
2018-12-10T02:59:09.220Z,4.80
2018-12-10T03:01:38.444Z,4.80
2018-12-10T03:04:06.941Z,4.80
2018-12-10T03:06:35.516Z,4.80
2018-12-10T03:09:05.948Z,4.80
2018-12-10T03:11:34.405Z,4.80
2018-12-10T03:14:02.884Z,4.80
2018-12-10T03:16:31.348Z,4.80
2018-12-10T03:18:59.818Z,4.80
2018-12-10T03:21:28.497Z,4.70
2018-12-10T03:23:57.069Z,4.70
2018-12-10T03:26:25.566Z,4.70
2018-12-10T03:28:54.110Z,4.70
2018-12-10T03:31:22.588Z,4.70
2018-12-10T03:33:51.099Z,4.70
2018-12-10T03:36:19.593Z,4.70
2018-12-10T03:38:48.092Z,4.80
2018-12-10T03:41:16.592Z,4.80
2018-12-10T03:43:45.112Z,4.70
2018-12-10T03:46:14.551Z,4.70
2018-12-10T03:48:43.097Z,4.80
2018-12-10T03:51:11.613Z,4.70
2018-12-10T03:53:40.091Z,4.80
2018-12-10T03:56:08.574Z,4.70
2018-12-10T03:58:37.074Z,4.70
2018-12-10T04:01:05.680Z,4.70
2018-12-10T04:03:34.159Z,4.70
2018-12-10T04:06:03.259Z,4.70
2018-12-10T04:08:31.734Z,4.70
2018-12-10T04:11:00.212Z,4.70
2018-12-10T04:13:28.667Z,4.70
2018-12-10T04:15:57.145Z,4.60
2018-12-10T04:18:25.796Z,4.60
2018-12-10T04:20:54.597Z,4.60
2018-12-10T04:23:23.078Z,4.60
2018-12-10T04:25:51.567Z,4.60
2018-12-10T04:28:20.099Z,4.60
2018-12-10T04:30:49.580Z,4.60
2018-12-10T04:33:18.082Z,4.60
2018-12-10T04:35:46.576Z,4.60
2018-12-10T04:38:15.827Z,4.60
2018-12-10T04:40:44.323Z,4.60
2018-12-10T04:43:12.804Z,4.60
2018-12-10T04:45:41.360Z,4.60
2018-12-10T04:48:09.901Z,4.60
2018-12-10T04:50:40.522Z,4.60
2018-12-10T04:53:10.966Z,4.60
2018-12-10T04:55:42.815Z,4.60
2018-12-10T04:58:11.275Z,4.50
2018-12-10T05:00:41.433Z,4.60
2018-12-10T05:03:10.050Z,4.50
2018-12-10T05:05:39.469Z,4.50
2018-12-10T05:08:07.947Z,4.50
2018-12-10T05:10:36.391Z,4.50
2018-12-10T05:13:04.888Z,4.50
2018-12-10T05:15:33.369Z,4.50
2018-12-10T05:18:03.123Z,4.50
2018-12-10T05:20:32.213Z,4.50
2018-12-10T05:23:02.276Z,4.60
2018-12-10T05:25:31.014Z,4.60
2018-12-10T05:28:01.601Z,4.60
2018-12-10T05:30:32.298Z,4.60
2018-12-10T05:33:01.207Z,4.60
2018-12-10T05:35:29.798Z,4.60
2018-12-10T05:37:58.296Z,4.60
2018-12-10T05:40:26.800Z,4.60
2018-12-10T05:42:55.256Z,4.50
2018-12-10T05:45:23.775Z,4.60
2018-12-10T05:47:52.302Z,4.50
2018-12-10T05:50:21.219Z,4.50
2018-12-10T05:52:50.583Z,4.50
2018-12-10T05:55:19.346Z,4.50
2018-12-10T05:57:47.961Z,4.50
2018-12-10T06:00:16.512Z,4.50
2018-12-10T06:02:45.087Z,4.50
2018-12-10T06:05:13.610Z,4.50
2018-12-10T06:07:42.366Z,4.50
2018-12-10T06:10:10.888Z,4.40
2018-12-10T06:12:39.650Z,4.40
2018-12-10T06:15:08.198Z,4.40
2018-12-10T06:17:36.655Z,4.40
2018-12-10T06:20:05.475Z,4.40
2018-12-10T06:22:33.934Z,4.40
2018-12-10T06:25:02.421Z,4.40
2018-12-10T06:27:30.996Z,4.30
2018-12-10T06:29:59.479Z,4.30
2018-12-10T06:32:27.950Z,4.30
2018-12-10T06:34:56.453Z,4.30
2018-12-10T06:37:24.903Z,4.30
2018-12-10T06:39:53.370Z,4.30
2018-12-10T06:42:21.904Z,4.20
2018-12-10T06:44:50.375Z,4.20
2018-12-10T06:47:18.848Z,4.20
2018-12-10T06:49:47.299Z,4.20
2018-12-10T06:52:16.475Z,4.20
2018-12-10T06:54:44.961Z,4.20
2018-12-10T06:57:13.428Z,4.20
2018-12-10T06:59:42.133Z,4.20
2018-12-10T07:02:10.762Z,4.20
2018-12-10T07:04:39.278Z,4.20
2018-12-10T07:07:07.876Z,4.20
2018-12-10T07:09:36.348Z,4.20
2018-12-10T07:12:04.831Z,4.20
2018-12-10T07:14:33.286Z,4.20
2018-12-10T07:17:01.771Z,4.20
2018-12-10T07:19:30.243Z,4.10
2018-12-10T07:21:58.711Z,4.10
2018-12-10T07:24:27.191Z,4.10
2018-12-10T07:26:55.640Z,4.10
2018-12-10T07:29:24.128Z,4.10
2018-12-10T07:31:52.595Z,4.10
2018-12-10T07:34:21.062Z,4.10
2018-12-10T07:36:49.591Z,4.10
2018-12-10T07:39:18.052Z,4.10
2018-12-10T07:41:46.533Z,4.10
2018-12-10T07:44:14.994Z,4.10
2018-12-10T07:46:43.455Z,4.10
2018-12-10T07:49:11.915Z,4.10
2018-12-10T07:51:40.372Z,4.10
2018-12-10T07:54:08.854Z,4.10
2018-12-10T07:56:37.338Z,4.10
2018-12-10T07:59:05.797Z,4.10
2018-12-10T08:01:34.266Z,4.10
2018-12-10T08:04:02.790Z,4.10
2018-12-10T08:06:31.247Z,4.10
2018-12-10T08:08:59.716Z,4.10
2018-12-10T08:11:28.211Z,4.20
2018-12-10T08:13:56.672Z,4.10
2018-12-10T08:16:25.141Z,4.20
2018-12-10T08:18:53.593Z,4.20
2018-12-10T08:21:22.065Z,4.20
2018-12-10T08:23:50.526Z,4.20
2018-12-10T08:26:19.027Z,4.30
2018-12-10T08:28:47.675Z,4.30
2018-12-10T08:31:16.280Z,4.30
2018-12-10T08:33:44.735Z,4.30
2018-12-10T08:36:13.211Z,4.30
2018-12-10T08:38:41.727Z,4.30
2018-12-10T08:41:10.196Z,4.30
2018-12-10T08:43:38.664Z,4.30
2018-12-10T08:46:07.235Z,4.30
2018-12-10T08:48:35.682Z,4.30
2018-12-10T08:51:04.175Z,4.40
2018-12-10T08:53:32.746Z,4.40
2018-12-10T08:56:01.196Z,4.40
2018-12-10T08:58:29.660Z,4.50
2018-12-10T09:00:58.130Z,4.50
2018-12-10T09:03:26.598Z,4.50
2018-12-10T09:05:55.926Z,4.50
2018-12-10T09:08:24.380Z,4.50
2018-12-10T09:10:52.821Z,4.50
2018-12-10T09:13:21.364Z,4.50
2018-12-10T09:15:49.824Z,4.50
2018-12-10T09:18:18.336Z,4.50
2018-12-10T09:20:46.826Z,4.50
2018-12-10T09:23:15.299Z,4.50
2018-12-10T09:25:43.783Z,4.50
2018-12-10T09:28:19.302Z,4.50
2018-12-10T09:30:42.767Z,4.50
2018-12-10T09:33:11.251Z,4.50
2018-12-10T09:35:40.466Z,4.50
2018-12-10T09:38:08.986Z,4.60
2018-12-10T09:40:37.507Z,4.60
2018-12-10T09:43:06.012Z,4.60
2018-12-10T09:45:34.488Z,4.70
2018-12-10T09:48:04.750Z,4.70
2018-12-10T09:50:33.219Z,4.70
2018-12-10T09:53:01.714Z,4.80
2018-12-10T09:55:30.238Z,4.80
2018-12-10T09:57:58.741Z,4.90
2018-12-10T10:00:27.279Z,4.90
2018-12-10T10:02:55.777Z,5.00
2018-12-10T10:05:24.243Z,5.00
2018-12-10T10:07:52.703Z,5.00
2018-12-10T10:10:21.557Z,5.10
2018-12-10T10:12:50.704Z,5.10
2018-12-10T10:15:19.343Z,5.10
2018-12-10T10:17:47.921Z,5.10
2018-12-10T10:20:16.471Z,5.20
2018-12-10T10:22:46.005Z,5.20
2018-12-10T10:25:15.188Z,5.20
2018-12-10T10:27:43.753Z,5.20
2018-12-10T10:30:12.330Z,5.20
2018-12-10T10:32:40.872Z,5.20
2018-12-10T10:35:09.491Z,5.20
2018-12-10T10:37:41.325Z,5.20
2018-12-10T10:40:10.517Z,5.20
2018-12-10T10:42:39.096Z,5.20
2018-12-10T10:45:08.123Z,5.30
2018-12-10T10:47:37.260Z,5.30
2018-12-10T10:50:06.973Z,5.40
2018-12-10T10:52:35.493Z,5.40
2018-12-10T10:55:05.539Z,5.50
2018-12-10T10:57:34.094Z,5.60
2018-12-10T11:00:06.169Z,5.60
2018-12-10T11:02:40.181Z,5.70
2018-12-10T11:05:08.804Z,5.80
2018-12-10T11:07:37.337Z,5.80
2018-12-10T11:10:06.061Z,5.90
2018-12-10T11:12:34.588Z,5.90
2018-12-10T11:15:03.376Z,6.00
2018-12-10T11:17:33.249Z,6.00
2018-12-10T11:20:02.152Z,6.00
2018-12-10T11:22:30.667Z,6.00
2018-12-10T11:24:59.918Z,6.00
2018-12-10T11:27:29.167Z,6.00
2018-12-10T11:29:59.564Z,6.00
2018-12-10T11:32:28.346Z,6.00
2018-12-10T11:34:56.885Z,6.00
2018-12-10T11:37:26.516Z,6.00
2018-12-10T11:39:55.025Z,6.10
2018-12-10T11:42:25.246Z,6.00
2018-12-10T11:44:53.741Z,6.00
2018-12-10T11:47:22.228Z,6.00
2018-12-10T11:49:51.551Z,6.10
2018-12-10T11:52:20.197Z,6.10
2018-12-10T11:54:48.698Z,6.10
2018-12-10T11:57:17.300Z,6.10
2018-12-10T11:59:45.805Z,6.20
2018-12-10T12:02:14.300Z,6.20
2018-12-10T12:04:42.796Z,6.20
2018-12-10T12:07:11.296Z,6.30
2018-12-10T12:09:40.562Z,6.30
2018-12-10T12:12:09.108Z,6.30
2018-12-10T12:14:38.333Z,6.30
2018-12-10T12:17:06.891Z,6.40
2018-12-10T12:19:36.201Z,6.50
2018-12-10T12:22:05.817Z,6.60
2018-12-10T12:24:34.924Z,6.60
2018-12-10T12:27:04.381Z,6.60
2018-12-10T12:29:32.937Z,6.70
2018-12-10T12:32:02.427Z,6.70
2018-12-10T12:34:30.966Z,6.70
2018-12-10T12:36:59.490Z,6.80
2018-12-10T12:40:53.753Z,6.80
2018-12-10T12:43:22.281Z,6.80
2018-12-10T12:45:50.805Z,6.80
2018-12-10T12:48:19.383Z,6.80
2018-12-10T12:50:48.593Z,6.80
2018-12-10T12:53:17.184Z,6.80
2018-12-10T12:55:45.690Z,6.80
2018-12-10T12:58:15.947Z,6.80
2018-12-10T13:04:44.329Z,6.40
2018-12-10T13:07:13.871Z,6.00
2018-12-10T13:09:42.350Z,5.80
2018-12-10T13:12:10.861Z,5.60
2018-12-10T13:14:39.506Z,5.40
2018-12-10T13:17:08.864Z,5.30
2018-12-10T13:19:37.396Z,5.30
2018-12-10T13:22:06.021Z,5.20
2018-12-10T13:24:35.782Z,5.20
2018-12-10T13:27:04.539Z,5.20
2018-12-10T13:29:33.058Z,5.20
2018-12-10T13:32:01.658Z,5.20
2018-12-10T13:34:30.260Z,5.20
2018-12-10T13:36:58.757Z,5.20
2018-12-10T13:39:27.400Z,5.20
2018-12-10T13:41:55.907Z,5.20
2018-12-10T13:44:24.472Z,5.20
2018-12-10T13:46:53.104Z,5.20
2018-12-10T13:49:21.634Z,5.20
2018-12-10T13:51:51.153Z,5.20
2018-12-10T13:54:20.818Z,5.10
2018-12-10T13:56:50.906Z,5.10
2018-12-10T13:59:20.314Z,5.10
2018-12-10T14:01:48.877Z,5.10
2018-12-10T14:04:21.994Z,5.10
2018-12-10T14:06:51.988Z,5.10
2018-12-10T14:09:21.638Z,5.10
2018-12-10T14:11:50.306Z,5.10
2018-12-10T14:14:20.381Z,5.10
2018-12-10T14:16:49.712Z,5.10
2018-12-10T14:19:18.987Z,5.10
2018-12-10T14:21:48.910Z,5.10
2018-12-10T14:24:18.061Z,5.10
2018-12-10T14:26:47.638Z,5.10
2018-12-10T14:29:16.490Z,5.10
2018-12-10T14:31:45.950Z,5.10
2018-12-10T14:34:20.723Z,5.10
2018-12-10T14:36:54.836Z,5.10
2018-12-10T14:39:25.569Z,5.10
2018-12-10T14:41:59.284Z,5.10
2018-12-10T14:44:27.837Z,5.10
2018-12-10T14:46:58.613Z,5.10
2018-12-10T14:49:31.717Z,5.10
2018-12-10T14:52:01.316Z,5.10
2018-12-10T14:54:29.953Z,5.10
2018-12-10T14:57:00.226Z,5.10
2018-12-10T14:59:28.884Z,5.10
2018-12-10T15:01:59.574Z,5.10
2018-12-10T15:04:28.759Z,5.10
2018-12-10T15:06:57.296Z,5.10
2018-12-10T15:09:25.892Z,5.00
2018-12-10T15:11:56.417Z,5.00
2018-12-10T15:14:24.921Z,5.00
2018-12-10T15:16:54.096Z,5.00
2018-12-10T15:19:24.248Z,5.00
2018-12-10T15:21:53.155Z,5.00
2018-12-10T15:24:21.708Z,5.00
2018-12-10T15:26:52.264Z,5.00
2018-12-10T15:29:20.826Z,5.00
2018-12-10T15:31:50.317Z,5.00
2018-12-10T15:34:19.815Z,5.00
2018-12-10T15:36:48.333Z,5.00
2018-12-10T15:39:17.826Z,4.90
2018-12-10T15:41:46.351Z,4.90
2018-12-10T15:44:16.393Z,4.90
2018-12-10T15:46:46.161Z,4.90
2018-12-10T15:49:14.678Z,4.90
2018-12-10T15:51:43.245Z,4.90
2018-12-10T15:54:12.828Z,4.90
2018-12-10T15:56:43.198Z,4.90
2018-12-10T15:59:11.764Z,4.90
2018-12-10T16:01:40.399Z,4.90
2018-12-10T16:04:09.639Z,4.90
2018-12-10T16:06:39.769Z,4.90
2018-12-10T16:09:08.863Z,4.90
2018-12-10T16:11:37.428Z,4.90
2018-12-10T16:14:06.385Z,4.90
2018-12-10T16:16:35.017Z,4.90
2018-12-10T16:19:03.604Z,4.90
2018-12-10T16:21:32.382Z,4.90
2018-12-10T16:24:00.969Z,4.90
2018-12-10T16:26:30.087Z,4.90
2018-12-10T16:28:58.665Z,4.90
2018-12-10T16:31:27.244Z,4.90
2018-12-10T16:33:56.019Z,4.90
2018-12-10T16:36:26.106Z,4.90
2018-12-10T16:38:54.743Z,4.90
2018-12-10T16:41:24.933Z,5.00
2018-12-10T16:43:56.835Z,5.00
2018-12-10T16:46:26.655Z,5.00
2018-12-10T16:48:56.659Z,5.00
2018-12-10T16:51:26.234Z,5.00
2018-12-10T16:53:56.838Z,4.90
2018-12-10T16:56:26.520Z,4.90
2018-12-10T16:58:57.365Z,4.90
2018-12-10T17:01:29.121Z,4.90
2018-12-10T17:04:00.094Z,4.90
2018-12-10T17:06:28.692Z,4.80
2018-12-10T17:08:58.484Z,4.80
2018-12-10T17:11:29.615Z,4.80
2018-12-10T17:13:58.702Z,4.80
2018-12-10T17:16:31.522Z,4.80
2018-12-10T17:19:00.274Z,4.80
2018-12-10T17:21:31.106Z,4.80
2018-12-10T17:24:02.115Z,4.80
2018-12-10T17:26:31.840Z,4.80
2018-12-10T17:29:00.812Z,4.80
2018-12-10T17:31:29.340Z,4.80
2018-12-10T17:33:59.935Z,4.90
2018-12-10T17:36:29.318Z,4.80
2018-12-10T17:38:59.352Z,4.80
2018-12-10T17:41:29.350Z,4.80
2018-12-10T17:44:01.748Z,4.90
2018-12-10T17:46:30.995Z,4.90
2018-12-10T17:48:59.570Z,4.90
2018-12-10T17:51:30.018Z,4.90
2018-12-10T17:54:06.064Z,4.90
2018-12-10T17:56:34.685Z,4.90
2018-12-10T17:59:03.966Z,4.90
2018-12-10T18:01:41.410Z,4.90
2018-12-10T18:04:14.803Z,4.90
2018-12-10T18:06:46.535Z,4.90
2018-12-10T18:09:21.500Z,4.90
2018-12-10T18:11:51.088Z,4.90
2018-12-10T18:14:20.872Z,4.90
2018-12-10T18:16:50.368Z,4.90
2018-12-10T18:19:19.872Z,4.90
2018-12-10T18:21:53.408Z,4.90
2018-12-10T18:24:22.621Z,4.90
2018-12-10T18:26:52.772Z,4.90
2018-12-10T18:29:25.543Z,4.90
2018-12-10T18:31:57.223Z,4.90
2018-12-10T18:34:36.968Z,4.90
2018-12-10T18:37:06.209Z,4.90
2018-12-10T18:39:38.372Z,4.90
2018-12-10T18:42:09.051Z,4.90
2018-12-10T18:44:43.875Z,4.80
2018-12-10T18:47:16.717Z,4.80
2018-12-10T18:49:50.752Z,4.80
2018-12-10T18:52:21.910Z,4.80
2018-12-10T18:54:52.232Z,4.80
2018-12-10T18:57:22.847Z,4.80
2018-12-10T18:59:53.636Z,4.80
2018-12-10T19:02:23.723Z,4.80
2018-12-10T19:04:55.993Z,4.80
2018-12-10T19:07:28.750Z,4.80
2018-12-10T19:10:00.325Z,4.80
2018-12-10T19:12:36.512Z,4.80
2018-12-10T19:15:09.874Z,4.80
2018-12-10T19:17:40.308Z,4.80
2018-12-10T19:20:13.785Z,4.80
2018-12-10T19:22:45.764Z,4.80
2018-12-10T19:25:18.588Z,4.80
2018-12-10T19:27:51.818Z,4.80
2018-12-10T19:30:24.361Z,4.80
2018-12-10T19:32:57.125Z,4.80
2018-12-10T19:35:26.302Z,4.80
2018-12-10T19:37:57.015Z,4.80
2018-12-10T19:40:26.704Z,4.80
2018-12-10T19:43:01.697Z,4.80
2018-12-10T19:45:33.233Z,4.80
2018-12-10T19:48:04.732Z,4.70
2018-12-10T19:50:36.258Z,4.80
2018-12-10T19:53:05.647Z,4.70
2018-12-10T19:55:39.646Z,4.70
2018-12-10T19:58:09.686Z,4.70
2018-12-10T20:00:38.598Z,4.70
2018-12-10T20:03:11.492Z,4.70
2018-12-10T20:05:46.605Z,4.70
2018-12-10T20:08:18.590Z,4.60
2018-12-10T20:10:49.019Z,4.60
2018-12-10T20:13:19.391Z,4.60
2018-12-10T20:15:51.257Z,4.60
2018-12-10T20:18:20.210Z,4.60
2018-12-10T20:20:51.231Z,4.60
2018-12-10T20:23:20.892Z,4.50
2018-12-10T20:25:49.931Z,4.50
2018-12-10T20:28:25.043Z,4.50
2018-12-10T20:30:56.861Z,4.50
2018-12-10T20:33:31.036Z,4.50
2018-12-10T20:36:00.394Z,4.50
2018-12-10T20:38:30.033Z,4.50
2018-12-10T20:40:59.769Z,4.40
2018-12-10T20:43:30.966Z,4.40
2018-12-10T20:46:06.500Z,4.40
2018-12-10T20:48:40.704Z,4.40
2018-12-10T20:51:13.959Z,4.40
2018-12-10T20:53:47.706Z,4.40
2018-12-10T20:56:17.452Z,4.40
2018-12-10T20:58:55.025Z,4.40
2018-12-10T21:01:24.562Z,4.40
2018-12-10T21:03:54.042Z,4.40
2018-12-10T21:06:30.602Z,4.40
2018-12-10T21:09:09.248Z,4.40
2018-12-10T21:11:38.188Z,4.30
2018-12-10T21:14:09.820Z,4.30
2018-12-10T21:16:40.277Z,4.30
2018-12-10T21:19:12.002Z,4.30
2018-12-10T21:21:41.407Z,4.30
2018-12-10T21:24:12.721Z,4.30
2018-12-10T21:26:42.440Z,4.30
2018-12-10T21:29:14.744Z,4.30
2018-12-10T21:31:45.230Z,4.30
2018-12-10T21:34:15.784Z,4.30
2018-12-10T21:36:49.852Z,4.30
2018-12-10T21:39:21.315Z,4.30
2018-12-10T21:42:01.105Z,4.30
2018-12-10T21:44:31.783Z,4.30
2018-12-10T21:47:02.413Z,4.30
2018-12-10T21:49:34.757Z,4.30
2018-12-10T21:52:06.114Z,4.30
2018-12-10T21:54:40.171Z,4.30
2018-12-10T21:57:09.855Z,4.30
2018-12-10T21:59:40.585Z,4.30
2018-12-10T22:02:12.426Z,4.30
2018-12-10T22:04:46.865Z,4.30
2018-12-10T22:07:24.694Z,4.30
2018-12-10T22:10:06.046Z,4.30
2018-12-10T22:12:39.953Z,4.30
2018-12-10T22:15:15.300Z,4.30
2018-12-10T22:17:57.650Z,4.30
2018-12-10T22:20:32.040Z,4.30
2018-12-10T22:23:13.690Z,4.30
2018-12-10T22:25:44.297Z,4.30
2018-12-10T22:28:16.208Z,4.30
2018-12-10T22:30:47.049Z,4.30
2018-12-10T22:35:55.047Z,4.40
2018-12-10T22:38:25.240Z,4.40
2018-12-10T22:40:59.741Z,4.40
2018-12-10T22:43:32.233Z,4.50
2018-12-10T22:46:02.671Z,4.50
2018-12-10T22:48:33.804Z,4.50
2018-12-10T22:51:08.767Z,4.50
2018-12-10T22:53:40.455Z,4.40
2018-12-10T22:56:12.288Z,4.40
2018-12-10T22:58:42.920Z,4.40
2018-12-10T23:01:12.297Z,4.40
2018-12-10T23:03:43.008Z,4.40
2018-12-10T23:06:12.091Z,4.30
2018-12-10T23:08:41.618Z,4.30
2018-12-10T23:11:31.916Z,4.30
2018-12-10T23:17:22.153Z,4.30
2018-12-10T23:20:09.009Z,4.30
2018-12-10T23:22:41.742Z,4.30
2018-12-10T23:25:12.118Z,4.30
2018-12-10T23:27:44.294Z,4.30
2018-12-10T23:30:15.108Z,4.30
2018-12-10T23:32:44.321Z,4.30
2018-12-10T23:35:15.378Z,4.30
2018-12-10T23:40:29.860Z,4.30
2018-12-10T23:43:05.092Z,4.30
2018-12-10T23:45:36.247Z,4.30
2018-12-10T23:48:07.739Z,4.30
2018-12-10T23:50:38.253Z,4.30
2018-12-10T23:54:35.258Z,4.30
2018-12-10T23:57:05.537Z,4.30
2018-12-10T23:59:42.266Z,4.30
